createdAt,value
2022-11-05T00:00:50.936Z,101344.16
2022-11-05T00:03:40.022Z,101337.78
2022-11-05T00:06:31.127Z,101351.75
2022-11-05T00:09:18.863Z,101350.25
2022-11-05T00:12:05.246Z,101366.22
2022-11-05T00:14:53.274Z,101348.19
2022-11-05T00:17:22.154Z,101365.31
2022-11-05T00:19:49.030Z,101350.97
2022-11-05T00:22:34.367Z,101345.63
2022-11-05T00:25:21.480Z,101354.50
2022-11-05T00:27:51.672Z,101348.63
2022-11-05T00:30:22.462Z,101364.88
2022-11-05T00:32:53.432Z,101344.97
2022-11-05T00:35:22.908Z,101376.94
2022-11-05T00:37:54.195Z,101368.31
2022-11-05T00:40:24.061Z,101369.25
2022-11-05T00:43:09.729Z,101374.19
2022-11-05T00:45:40.836Z,101391.94
2022-11-05T00:48:26.743Z,101401.25
2022-11-05T00:50:54.278Z,101392.34
2022-11-05T00:53:21.071Z,101379.38
2022-11-05T00:55:48.164Z,101395.63
2022-11-05T00:58:18.378Z,101413.66
2022-11-05T01:00:50.440Z,101409.84
2022-11-05T01:03:19.999Z,101396.84
2022-11-05T01:05:55.249Z,101416.53
2022-11-05T01:08:26.806Z,101394.94
2022-11-05T01:10:56.482Z,101408.75
2022-11-05T01:13:29.372Z,101400.81
2022-11-05T01:15:57.961Z,101415.69
2022-11-05T01:18:30.575Z,101421.88
2022-11-05T01:20:59.817Z,101428.66
2022-11-05T01:23:26.544Z,101440.69
2022-11-05T01:25:53.382Z,101424.03
2022-11-05T01:28:23.164Z,101432.06
2022-11-05T01:30:55.911Z,101436.34
2022-11-05T01:33:22.872Z,101413.63
2022-11-05T01:35:53.500Z,101430.19
2022-11-05T01:38:20.241Z,101439.84
2022-11-05T01:40:47.896Z,101411.84
2022-11-05T01:43:18.139Z,101421.97
2022-11-05T01:45:49.696Z,101425.66
2022-11-05T01:48:32.839Z,101423.72
2022-11-05T01:51:07.477Z,101432.34
2022-11-05T01:53:44.653Z,101419.78
2022-11-05T01:56:33.996Z,101434.53
2022-11-05T01:59:08.185Z,101417.97
2022-11-05T02:01:39.369Z,101407.31
2022-11-05T02:04:12.340Z,101415.75
2022-11-05T02:06:46.406Z,101410.06
2022-11-05T02:09:20.833Z,101421.13
2022-11-05T02:11:49.898Z,101413.44
2022-11-05T02:14:20.739Z,101405.75
2022-11-05T02:16:53.110Z,101423.25
2022-11-05T02:19:57.262Z,101430.38
2022-11-05T02:22:36.105Z,101435.97
2022-11-05T02:25:06.009Z,101430.88
2022-11-05T02:27:50.077Z,101424.31
2022-11-05T02:30:31.353Z,101430.22
2022-11-05T02:33:18.402Z,101401.34
2022-11-05T02:36:17.111Z,101416.66
2022-11-05T02:39:02.147Z,101430.72
2022-11-05T02:41:48.605Z,101430.34
2022-11-05T02:44:34.313Z,101419.41
2022-11-05T02:47:33.583Z,101426.91
2022-11-05T02:50:21.813Z,101428.97
2022-11-05T02:53:07.418Z,101431.25
2022-11-05T02:55:42.476Z,101429.19
2022-11-05T02:58:09.685Z,101403.50
2022-11-05T03:00:52.968Z,101430.28
2022-11-05T03:03:32.426Z,101399.97
2022-11-05T03:06:06.234Z,101436.03
2022-11-05T03:08:58.005Z,101435.34
2022-11-05T03:11:32.481Z,101419.34
2022-11-05T03:14:18.336Z,101430.28
2022-11-05T03:16:58.812Z,101412.50
2022-11-05T03:19:44.406Z,101424.50
2022-11-05T03:22:16.270Z,101407.81
2022-11-05T03:24:47.541Z,101404.50
2022-11-05T03:27:25.956Z,101430.47
2022-11-05T03:29:59.505Z,101410.63
2022-11-05T03:32:28.552Z,101424.78
2022-11-05T03:35:02.149Z,101403.75
2022-11-05T03:40:50.621Z,101423.28
2022-11-05T03:44:19.616Z,101408.00
2022-11-05T03:47:48.563Z,101409.38
2022-11-05T03:50:41.615Z,101435.34
2022-11-05T03:53:42.912Z,101415.06
2022-11-05T03:56:37.458Z,101440.28
2022-11-05T04:05:34.207Z,101448.75
2022-11-05T04:08:27.189Z,101432.91
2022-11-05T04:11:14.036Z,101444.06
2022-11-05T04:13:47.899Z,101450.09
2022-11-05T04:16:33.747Z,101454.09
2022-11-05T04:19:00.605Z,101452.22
2022-11-05T04:21:45.944Z,101444.94
2022-11-05T04:24:13.164Z,101462.22
2022-11-05T04:26:43.805Z,101455.38
2022-11-05T04:29:29.253Z,101445.06
2022-11-05T04:31:56.017Z,101464.44
2022-11-05T04:34:25.770Z,101450.84
2022-11-05T04:36:53.311Z,101452.22
2022-11-05T04:39:24.316Z,101469.34
2022-11-05T04:41:56.958Z,101464.00
2022-11-05T04:44:24.732Z,101460.66
2022-11-05T04:46:51.894Z,101449.75
2022-11-05T04:49:18.611Z,101462.56
2022-11-05T04:51:45.347Z,101459.28
2022-11-05T04:54:12.434Z,101454.38
2022-11-05T04:56:41.484Z,101475.41
2022-11-05T04:59:08.849Z,101458.66
2022-11-05T05:01:36.536Z,101453.34
2022-11-05T05:04:03.691Z,101466.88
2022-11-05T05:06:34.121Z,101456.31
2022-11-05T05:09:01.063Z,101449.75
2022-11-05T05:11:28.574Z,101464.78
2022-11-05T05:13:55.599Z,101470.97
2022-11-05T05:16:25.487Z,101478.88
2022-11-05T05:18:53.256Z,101464.34
2022-11-05T05:21:41.687Z,101470.94
2022-11-05T05:24:14.983Z,101483.59
2022-11-05T05:26:44.804Z,101486.47
2022-11-05T05:29:13.003Z,101477.66
2022-11-05T05:31:40.320Z,101490.53
2022-11-05T05:34:11.297Z,101483.66
2022-11-05T05:36:38.921Z,101483.66
2022-11-05T05:39:07.153Z,101503.06
2022-11-05T05:41:34.623Z,101481.78
2022-11-05T05:44:01.507Z,101483.34
2022-11-05T05:46:28.471Z,101489.16
2022-11-05T05:48:59.199Z,101486.34
2022-11-05T05:51:28.070Z,101489.56
2022-11-05T05:53:58.577Z,101485.50
2022-11-05T05:56:28.572Z,101501.03
2022-11-05T05:58:56.106Z,101490.78
2022-11-05T06:01:23.623Z,101500.00
2022-11-05T06:03:50.693Z,101498.69
2022-11-05T06:06:25.075Z,101481.66
2022-11-05T06:08:51.946Z,101490.63
2022-11-05T06:11:18.673Z,101490.31
2022-11-05T06:13:45.666Z,101482.09
2022-11-05T06:16:12.517Z,101500.91
2022-11-05T06:18:42.009Z,101485.81
2022-11-05T06:21:11.734Z,101494.16
2022-11-05T06:23:42.605Z,101492.03
2022-11-05T06:26:12.841Z,101493.38
2022-11-05T06:28:47.015Z,101506.19
2022-11-05T06:31:16.924Z,101495.78
2022-11-05T06:33:47.326Z,101488.47
2022-11-05T06:36:16.218Z,101498.81
2022-11-05T06:38:46.500Z,101513.41
2022-11-05T06:41:13.851Z,101496.84
2022-11-05T06:43:41.308Z,101512.56
2022-11-05T06:46:12.023Z,101497.41
2022-11-05T06:48:39.946Z,101504.03
2022-11-05T06:51:11.758Z,101498.72
2022-11-05T06:53:40.247Z,101522.03
2022-11-05T06:56:10.246Z,101496.56
2022-11-05T06:58:39.855Z,101498.94
2022-11-05T07:01:08.775Z,101528.66
2022-11-05T07:03:37.727Z,101518.06
2022-11-05T07:06:08.213Z,101507.25
2022-11-05T07:08:36.838Z,101515.47
2022-11-05T07:11:04.318Z,101517.13
2022-11-05T07:13:31.324Z,101525.66
2022-11-05T07:15:58.421Z,101534.97
2022-11-05T07:18:25.764Z,101521.09
2022-11-05T07:20:52.909Z,101522.50
2022-11-05T07:23:19.708Z,101527.06
2022-11-05T07:25:46.810Z,101529.06
2022-11-05T07:28:14.723Z,101538.56
2022-11-05T07:30:41.886Z,101519.75
2022-11-05T07:33:09.933Z,101526.69
2022-11-05T07:35:39.072Z,101533.25
2022-11-05T07:38:05.877Z,101531.22
2022-11-05T07:40:32.768Z,101538.38
2022-11-05T07:43:01.499Z,101544.47
2022-11-05T07:45:32.693Z,101563.25
2022-11-05T07:48:02.669Z,101555.22
2022-11-05T07:50:36.152Z,101549.22
2022-11-05T07:53:09.834Z,101545.22
2022-11-05T07:55:38.013Z,101552.94
2022-11-05T07:58:05.065Z,101567.34
2022-11-05T08:00:36.370Z,101552.28
2022-11-05T08:03:09.140Z,101550.91
2022-11-05T08:05:44.673Z,101554.38
2022-11-05T08:08:19.297Z,101558.28
2022-11-05T08:10:47.139Z,101544.47
2022-11-05T08:13:15.028Z,101569.81
2022-11-05T08:15:45.597Z,101554.91
2022-11-05T08:18:17.957Z,101552.75
2022-11-05T08:20:46.779Z,101545.81
2022-11-05T08:23:15.621Z,101554.47
2022-11-05T08:25:42.521Z,101557.75
2022-11-05T08:28:14.701Z,101533.44
2022-11-05T08:30:42.087Z,101533.59
2022-11-05T08:33:11.576Z,101541.25
2022-11-05T08:35:41.658Z,101548.38
2022-11-05T08:38:16.184Z,101558.91
2022-11-05T08:40:47.295Z,101538.94
2022-11-05T08:43:19.960Z,101546.34
2022-11-05T08:45:49.870Z,101542.81
2022-11-05T08:48:19.753Z,101557.28
2022-11-05T08:50:48.460Z,101540.34
2022-11-05T08:53:20.558Z,101555.38
2022-11-05T08:55:53.694Z,101557.53
2022-11-05T08:59:04.334Z,101559.06
2022-11-05T09:02:00.765Z,101541.09
2022-11-05T09:04:41.327Z,101554.34
2022-11-05T09:07:27.033Z,101551.06
2022-11-05T09:10:04.302Z,101550.34
2022-11-05T09:12:35.561Z,101557.19
2022-11-05T09:15:03.880Z,101547.63
2022-11-05T09:17:46.558Z,101565.66
2022-11-05T09:20:19.434Z,101544.28
2022-11-05T09:22:51.568Z,101543.44
2022-11-05T09:25:24.471Z,101551.31
2022-11-05T09:31:11.879Z,101558.56
2022-11-05T09:33:50.135Z,101564.34
2022-11-05T09:36:24.439Z,101567.81
2022-11-05T09:38:55.566Z,101538.41
2022-11-05T09:41:53.304Z,101564.53
2022-11-05T09:44:31.952Z,101561.38
2022-11-05T09:47:41.204Z,101563.81
2022-11-05T09:50:43.856Z,101554.47
2022-11-05T09:53:30.199Z,101559.75
2022-11-05T09:59:19.293Z,101569.28
2022-11-05T10:02:25.152Z,101570.19
2022-11-05T10:05:16.144Z,101574.88
2022-11-05T10:07:54.957Z,101599.81
2022-11-05T10:10:50.065Z,101601.78
2022-11-05T10:14:01.252Z,101591.19
2022-11-05T10:16:50.360Z,101607.00
2022-11-05T10:19:59.159Z,101603.53
2022-11-05T10:22:39.585Z,101593.06
2022-11-05T10:25:20.684Z,101606.50
2022-11-05T10:27:54.269Z,101597.34
2022-11-05T10:30:22.818Z,101618.78
2022-11-05T10:32:54.718Z,101610.78
2022-11-05T10:35:26.812Z,101597.41
2022-11-05T10:37:53.883Z,101595.09
2022-11-05T10:40:49.306Z,101602.66
2022-11-05T10:43:37.018Z,101598.38
2022-11-05T10:46:35.610Z,101613.91
2022-11-05T10:49:23.379Z,101612.28
2022-11-05T10:51:56.988Z,101597.91
2022-11-05T10:54:24.997Z,101607.88
2022-11-05T10:56:52.124Z,101579.63
2022-11-05T10:59:28.132Z,101594.00
2022-11-05T11:02:04.027Z,101605.13
2022-11-05T11:04:54.686Z,101576.38
2022-11-05T11:07:23.927Z,101588.47
2022-11-05T11:09:52.131Z,101592.22
2022-11-05T11:12:38.188Z,101591.88
2022-11-05T11:15:21.478Z,101578.19
2022-11-05T11:17:58.692Z,101594.00
2022-11-05T11:20:32.497Z,101572.13
2022-11-05T11:23:16.341Z,101574.72
2022-11-05T11:26:01.838Z,101570.31
2022-11-05T11:28:40.030Z,101559.88
2022-11-05T11:33:57.883Z,101566.41
2022-11-05T11:36:36.138Z,101559.88
2022-11-05T11:39:06.577Z,101559.88
2022-11-05T11:41:43.403Z,101567.41
2022-11-05T11:44:24.091Z,101566.41
2022-11-05T11:46:53.753Z,101564.09
2022-11-05T11:49:47.430Z,101577.38
2022-11-05T11:52:19.768Z,101557.44
2022-11-05T11:54:46.766Z,101547.44
2022-11-05T11:57:23.375Z,101562.13
2022-11-05T12:03:13.791Z,101562.16
2022-11-05T12:05:51.012Z,101557.19
2022-11-05T12:08:36.109Z,101571.88
2022-11-05T12:11:06.040Z,101564.47
2022-11-05T12:13:49.420Z,101568.53
2022-11-05T12:16:24.791Z,101569.44
2022-11-05T12:19:00.053Z,101574.25
2022-11-05T12:21:56.508Z,101564.31
2022-11-05T12:24:42.279Z,101560.69
2022-11-05T12:27:18.035Z,101548.31
2022-11-05T12:30:12.016Z,101557.75
2022-11-05T12:33:16.154Z,101556.59
2022-11-05T12:36:04.258Z,101556.25
2022-11-05T12:38:40.140Z,101550.66
2022-11-05T12:41:30.984Z,101540.94
2022-11-05T12:44:01.910Z,101532.56
2022-11-05T12:47:06.587Z,101527.09
2022-11-05T12:49:39.431Z,101529.06
2022-11-05T12:52:35.460Z,101524.13
2022-11-05T12:55:05.678Z,101525.13
2022-11-05T12:57:39.335Z,101510.22
2022-11-05T13:00:10.593Z,101520.31
2022-11-05T13:03:15.013Z,101513.66
2022-11-05T13:06:06.183Z,101495.91
2022-11-05T13:09:03.096Z,101511.75
2022-11-05T13:11:47.159Z,101487.63
2022-11-05T13:14:23.372Z,101492.16
2022-11-05T13:17:01.186Z,101482.69
2022-11-05T13:19:40.569Z,101480.38
2022-11-05T13:22:25.910Z,101486.88
2022-11-05T13:25:05.407Z,101468.28
2022-11-05T13:27:56.709Z,101466.66
2022-11-05T13:30:39.090Z,101485.06
2022-11-05T13:33:12.173Z,101486.53
2022-11-05T13:35:48.564Z,101484.59
2022-11-05T13:38:47.199Z,101473.00
2022-11-05T13:41:32.891Z,101474.69
2022-11-05T13:44:14.859Z,101484.25
2022-11-05T13:47:19.385Z,101476.34
2022-11-05T13:49:55.217Z,101472.94
2022-11-05T13:52:43.899Z,101475.75
2022-11-05T13:55:41.540Z,101473.00
2022-11-05T13:58:42.847Z,101459.72
2022-11-05T14:01:30.098Z,101469.66
2022-11-05T14:03:57.611Z,101463.16
2022-11-05T14:06:31.326Z,101456.50
2022-11-05T14:09:02.729Z,101464.31
2022-11-05T14:11:34.391Z,101461.50
2022-11-05T14:14:05.507Z,101459.31
2022-11-05T14:16:55.856Z,101480.16
2022-11-05T14:19:32.890Z,101473.16
2022-11-05T14:22:03.171Z,101461.03
2022-11-05T14:24:38.008Z,101471.31
2022-11-05T14:27:04.953Z,101469.19
2022-11-05T14:29:38.118Z,101473.97
2022-11-05T14:32:17.560Z,101473.50
2022-11-05T14:34:47.113Z,101476.13
2022-11-05T14:37:27.076Z,101463.56
2022-11-05T14:39:59.834Z,101484.78
2022-11-05T14:42:31.262Z,101471.66
2022-11-05T14:45:23.123Z,101478.81
2022-11-05T14:48:03.152Z,101480.44
2022-11-05T14:50:40.611Z,101473.25
2022-11-05T14:53:26.926Z,101477.16
2022-11-05T14:56:07.560Z,101452.63
2022-11-05T14:58:40.123Z,101464.06
2022-11-05T15:01:09.895Z,101460.19
2022-11-05T15:03:45.898Z,101476.66
2022-11-05T15:06:36.734Z,101483.41
2022-11-05T15:09:36.949Z,101461.22
2022-11-05T15:12:27.035Z,101458.28
2022-11-05T15:15:02.380Z,101459.97
2022-11-05T15:17:33.807Z,101442.69
2022-11-05T15:20:06.810Z,101465.69
2022-11-05T15:22:47.279Z,101452.16
2022-11-05T15:25:41.441Z,101462.59
2022-11-05T15:28:39.493Z,101467.34
2022-11-05T15:31:25.023Z,101438.50
2022-11-05T15:34:25.633Z,101433.91
2022-11-05T15:36:58.105Z,101437.81
2022-11-05T15:39:44.135Z,101431.16
2022-11-05T15:42:34.862Z,101438.81
2022-11-05T15:45:03.204Z,101433.78
2022-11-05T15:47:34.642Z,101427.06
2022-11-05T15:50:14.436Z,101431.84
2022-11-05T15:53:14.426Z,101450.63
2022-11-05T15:55:57.695Z,101456.84
2022-11-05T15:58:29.925Z,101457.50
2022-11-05T16:01:04.373Z,101453.91
2022-11-05T16:03:35.752Z,101449.34
2022-11-05T16:06:03.087Z,101430.72
2022-11-05T16:11:25.857Z,101436.59
2022-11-05T16:13:54.087Z,101426.44
2022-11-05T16:16:34.264Z,101425.47
2022-11-05T16:19:01.650Z,101436.44
2022-11-05T16:21:29.242Z,101422.22
2022-11-05T16:24:02.699Z,101424.72
2022-11-05T16:27:08.145Z,101422.72
2022-11-05T16:29:39.430Z,101426.50
2022-11-05T16:32:31.166Z,101435.31
2022-11-05T16:35:07.465Z,101415.06
2022-11-05T16:37:41.500Z,101428.47
2022-11-05T16:40:23.800Z,101420.31
2022-11-05T16:42:58.511Z,101416.88
2022-11-05T16:45:27.569Z,101421.47
2022-11-05T16:47:56.781Z,101430.44
2022-11-05T16:50:29.967Z,101405.66
2022-11-05T16:53:03.881Z,101416.41
2022-11-05T16:55:32.785Z,101400.75
2022-11-05T16:57:59.893Z,101420.66
2022-11-05T17:00:27.095Z,101402.88
2022-11-05T17:02:54.884Z,101408.25
2022-11-05T17:05:24.199Z,101430.13
2022-11-05T17:07:54.771Z,101414.28
2022-11-05T17:10:25.767Z,101419.53
2022-11-05T17:12:55.193Z,101408.78
2022-11-05T17:15:31.763Z,101428.84
2022-11-05T17:18:03.704Z,101413.50
2022-11-05T17:20:44.768Z,101405.31
2022-11-05T17:23:17.487Z,101402.38
2022-11-05T17:25:53.765Z,101405.50
2022-11-05T17:28:27.538Z,101414.47
2022-11-05T17:30:55.227Z,101398.16
2022-11-05T17:33:27.787Z,101416.63
2022-11-05T17:35:58.661Z,101407.63
2022-11-05T17:38:27.186Z,101417.44
2022-11-05T17:41:08.797Z,101420.38
2022-11-05T17:43:36.804Z,101448.78
2022-11-05T17:46:08.968Z,101441.94
2022-11-05T17:48:38.268Z,101425.94
2022-11-05T17:51:11.327Z,101445.19
2022-11-05T17:53:39.817Z,101448.97
2022-11-05T17:56:12.158Z,101438.19
2022-11-05T17:58:40.237Z,101439.16
2022-11-05T18:01:11.595Z,101450.41
2022-11-05T18:03:50.786Z,101447.16
2022-11-05T18:10:08.887Z,101451.88
2022-11-05T18:12:44.459Z,101452.03
2022-11-05T18:15:13.079Z,101445.19
2022-11-05T18:17:40.439Z,101443.72
2022-11-05T18:20:17.431Z,101449.09
2022-11-05T18:22:49.474Z,101444.19
2022-11-05T18:25:49.712Z,101439.47
2022-11-05T18:28:22.474Z,101455.28
2022-11-05T18:30:58.001Z,101459.72
2022-11-05T18:33:32.310Z,101453.50
2022-11-05T18:36:05.668Z,101430.00
2022-11-05T18:38:35.756Z,101449.91
2022-11-05T18:41:07.175Z,101450.25
2022-11-05T18:43:37.112Z,101449.75
2022-11-05T18:46:23.826Z,101453.03
2022-11-05T18:52:02.861Z,101449.59
2022-11-05T18:54:32.584Z,101438.34
2022-11-05T18:57:04.012Z,101442.44
2022-11-05T18:59:39.868Z,101456.94
2022-11-05T19:02:11.296Z,101438.97
2022-11-05T19:04:46.771Z,101430.81
2022-11-05T19:07:25.700Z,101440.13
2022-11-05T19:09:59.044Z,101422.50
2022-11-05T19:12:28.789Z,101423.00
2022-11-05T19:15:01.888Z,101421.53
2022-11-05T19:17:35.614Z,101439.94
2022-11-05T19:20:14.729Z,101427.88
2022-11-05T19:22:51.151Z,101415.97
2022-11-05T19:25:20.281Z,101428.72
2022-11-05T19:27:53.717Z,101407.00
2022-11-05T19:30:20.854Z,101386.13
2022-11-05T19:32:52.704Z,101396.69
2022-11-05T19:35:23.358Z,101382.19
2022-11-05T19:37:53.664Z,101369.94
2022-11-05T19:40:27.584Z,101351.03
2022-11-05T19:43:01.104Z,101354.09
2022-11-05T19:45:48.292Z,101352.78
2022-11-05T19:48:19.475Z,101351.19
2022-11-05T19:50:48.330Z,101349.53
2022-11-05T19:53:16.341Z,101333.53
2022-11-05T19:55:53.293Z,101357.88
2022-11-05T19:58:22.347Z,101354.91
2022-11-05T20:00:55.093Z,101353.16
2022-11-05T20:03:28.767Z,101350.69
2022-11-05T20:06:36.169Z,101368.31
2022-11-05T20:09:22.690Z,101338.47
2022-11-05T20:11:57.069Z,101329.97
2022-11-05T20:14:27.966Z,101350.84
2022-11-05T20:16:55.112Z,101341.03
2022-11-05T20:19:25.265Z,101358.19
2022-11-05T20:21:55.338Z,101348.22
2022-11-05T20:24:26.807Z,101347.69
2022-11-05T20:26:57.027Z,101337.72
2022-11-05T20:29:34.783Z,101356.81
2022-11-05T20:32:10.019Z,101354.16
2022-11-05T20:34:36.899Z,101366.06
2022-11-05T20:37:07.382Z,101368.00
2022-11-05T20:39:34.582Z,101364.41
2022-11-05T20:42:01.378Z,101387.91
2022-11-05T20:44:30.479Z,101374.00
2022-11-05T20:46:57.661Z,101376.09
2022-11-05T20:49:25.782Z,101371.56
2022-11-05T20:51:52.918Z,101386.78
2022-11-05T20:54:24.848Z,101374.19
2022-11-05T20:56:52.609Z,101376.63
2022-11-05T20:59:19.908Z,101392.28
2022-11-05T21:01:52.404Z,101398.97
2022-11-05T21:04:26.197Z,101380.50
2022-11-05T21:06:57.450Z,101395.53
2022-11-05T21:09:24.426Z,101384.56
2022-11-05T21:12:09.963Z,101382.56
2022-11-05T21:14:40.621Z,101389.59
2022-11-05T21:17:09.391Z,101367.72
2022-11-05T21:19:36.723Z,101365.59
2022-11-05T21:22:05.353Z,101368.75
2022-11-05T21:24:34.760Z,101364.00
2022-11-05T21:27:02.323Z,101353.94
2022-11-05T21:29:29.463Z,101368.00
2022-11-05T21:32:00.551Z,101345.81
2022-11-05T21:34:28.781Z,101365.16
2022-11-05T21:36:57.683Z,101350.13
2022-11-05T21:39:29.005Z,101351.94
2022-11-05T21:41:57.418Z,101340.19
2022-11-05T21:44:24.191Z,101362.22
2022-11-05T21:47:01.375Z,101342.97
2022-11-05T21:49:33.437Z,101347.75
2022-11-05T21:52:38.627Z,101338.91
2022-11-05T21:55:29.489Z,101348.22
2022-11-05T21:58:20.885Z,101334.81
2022-11-05T22:00:49.939Z,101334.03
2022-11-05T22:03:16.893Z,101358.00
2022-11-05T22:05:45.753Z,101327.16
2022-11-05T22:08:13.358Z,101322.78
2022-11-05T22:10:40.400Z,101342.34
2022-11-05T22:13:07.186Z,101330.59
2022-11-05T22:15:36.235Z,101326.34
2022-11-05T22:18:04.951Z,101338.59
2022-11-05T22:20:31.828Z,101331.41
2022-11-05T22:23:07.420Z,101331.88
2022-11-05T22:25:39.392Z,101330.91
2022-11-05T22:28:06.258Z,101323.88
2022-11-05T22:30:35.078Z,101327.66
2022-11-05T22:33:04.515Z,101317.88
2022-11-05T22:35:33.829Z,101312.34
2022-11-05T22:38:04.671Z,101300.56
2022-11-05T22:40:31.695Z,101298.28
2022-11-05T22:43:02.283Z,101302.53
2022-11-05T22:45:30.675Z,101318.88
2022-11-05T22:47:57.454Z,101313.00
2022-11-05T22:50:24.353Z,101309.72
2022-11-05T22:52:51.111Z,101303.03
2022-11-05T22:55:18.357Z,101313.09
2022-11-05T22:57:45.205Z,101308.19
2022-11-05T23:00:17.583Z,101319.59
2022-11-05T23:02:44.514Z,101299.16
2022-11-05T23:05:11.358Z,101303.56
2022-11-05T23:08:00.297Z,101301.91
2022-11-05T23:10:45.682Z,101294.44
2022-11-05T23:13:12.865Z,101280.22
2022-11-05T23:15:59.423Z,101285.75
2022-11-05T23:18:48.687Z,101285.44
2022-11-05T23:21:36.088Z,101280.22
2022-11-05T23:24:10.361Z,101280.53
2022-11-05T23:26:51.624Z,101270.38
2022-11-05T23:29:27.244Z,101270.41
2022-11-05T23:32:13.759Z,101280.19
2022-11-05T23:34:40.845Z,101271.50
2022-11-05T23:37:26.768Z,101265.81
2022-11-05T23:39:56.234Z,101285.72
2022-11-05T23:42:44.532Z,101286.03
2022-11-05T23:45:30.632Z,101281.31
2022-11-05T23:48:16.382Z,101272.97
2022-11-05T23:50:53.000Z,101262.22
2022-11-05T23:53:20.412Z,101257.16
2022-11-05T23:55:48.331Z,101258.97
2022-11-05T23:58:16.996Z,101268.41
